createdAt,value
2022-09-02T00:01:23.906Z,20.00
2022-09-02T00:03:52.321Z,20.00
2022-09-02T00:06:19.280Z,20.00
2022-09-02T00:08:46.469Z,19.90
2022-09-02T00:11:20.411Z,19.90
2022-09-02T00:13:50.170Z,19.70
2022-09-02T00:16:17.910Z,19.80
2022-09-02T00:18:45.899Z,19.80
2022-09-02T00:21:14.334Z,19.80
2022-09-02T00:23:42.429Z,19.80
2022-09-02T00:26:09.443Z,19.80
2022-09-02T00:28:36.740Z,19.80
2022-09-02T00:31:04.106Z,19.90
2022-09-02T00:33:31.678Z,19.80
2022-09-02T00:36:00.988Z,19.90
2022-09-02T00:38:29.181Z,19.90
2022-09-02T00:40:55.968Z,19.90
2022-09-02T00:43:39.373Z,20.00
2022-09-02T00:46:06.658Z,19.90
2022-09-02T00:48:34.703Z,19.90
2022-09-02T00:51:03.635Z,19.90
2022-09-02T00:53:33.899Z,19.80
2022-09-02T00:56:02.309Z,19.70
2022-09-02T00:58:34.968Z,19.80
2022-09-02T01:01:01.842Z,19.70
2022-09-02T01:03:31.711Z,19.80
2022-09-02T01:05:59.517Z,19.70
2022-09-02T01:08:30.122Z,19.70
2022-09-02T01:10:57.285Z,19.70
2022-09-02T01:13:26.959Z,19.70
2022-09-02T01:16:02.419Z,19.80
2022-09-02T01:18:30.790Z,19.70
2022-09-02T01:20:59.829Z,19.70
2022-09-02T01:23:28.469Z,19.50
2022-09-02T01:25:58.640Z,19.50
2022-09-02T01:28:25.736Z,19.60
2022-09-02T01:30:54.857Z,19.60
2022-09-02T01:33:23.625Z,19.50
2022-09-02T01:35:52.978Z,19.50
2022-09-02T01:38:20.226Z,19.50
2022-09-02T01:40:47.074Z,19.60
2022-09-02T01:43:17.487Z,19.60
2022-09-02T01:45:45.279Z,19.60
2022-09-02T01:48:12.500Z,19.50
2022-09-02T01:50:47.017Z,19.60
2022-09-02T01:53:14.529Z,19.50
2022-09-02T01:55:41.606Z,19.50
2022-09-02T01:58:08.528Z,19.50
2022-09-02T02:00:35.509Z,19.50
2022-09-02T02:03:03.493Z,19.40
2022-09-02T02:05:32.125Z,19.50
2022-09-02T02:08:00.103Z,19.40
2022-09-02T02:10:27.371Z,19.30
2022-09-02T02:12:54.170Z,19.40
2022-09-02T02:15:21.468Z,19.50
2022-09-02T02:17:48.158Z,19.40
2022-09-02T02:20:16.383Z,19.20
2022-09-02T02:22:43.926Z,19.20
2022-09-02T02:25:12.071Z,19.30
2022-09-02T02:27:38.841Z,19.30
2022-09-02T02:30:07.453Z,19.40
2022-09-02T02:32:34.683Z,19.30
2022-09-02T02:35:01.849Z,19.30
2022-09-02T02:37:28.622Z,19.40
2022-09-02T02:39:56.618Z,19.30
2022-09-02T02:42:23.932Z,19.20
2022-09-02T02:44:51.177Z,19.20
2022-09-02T02:47:18.238Z,19.20
2022-09-02T02:49:45.011Z,19.00
2022-09-02T02:52:13.036Z,19.00
2022-09-02T02:54:40.490Z,18.90
2022-09-02T02:57:08.841Z,19.00
2022-09-02T02:59:36.929Z,18.90
2022-09-02T03:02:05.860Z,19.00
2022-09-02T03:04:32.990Z,19.00
2022-09-02T03:06:59.728Z,18.80
2022-09-02T03:09:26.539Z,18.80
2022-09-02T03:11:53.215Z,18.90
2022-09-02T03:14:19.986Z,19.00
2022-09-02T03:16:46.736Z,19.10
2022-09-02T03:19:14.293Z,18.80
2022-09-02T03:21:42.134Z,18.90
2022-09-02T03:24:10.660Z,19.10
2022-09-02T03:26:38.210Z,18.80
2022-09-02T03:29:05.460Z,18.70
2022-09-02T03:31:32.286Z,18.70
2022-09-02T03:33:59.391Z,18.80
2022-09-02T03:36:32.757Z,18.90
2022-09-02T03:38:59.927Z,18.90
2022-09-02T03:41:27.054Z,18.80
2022-09-02T03:43:53.804Z,18.90
2022-09-02T03:46:20.590Z,18.80
2022-09-02T03:48:47.870Z,18.70
2022-09-02T03:51:14.645Z,18.60
2022-09-02T03:53:41.375Z,18.60
2022-09-02T03:56:13.041Z,19.00
2022-09-02T03:58:41.534Z,18.80
2022-09-02T04:01:13.482Z,18.50
2022-09-02T04:03:40.189Z,18.30
2022-09-02T04:06:11.934Z,17.70
2022-09-02T04:08:41.651Z,17.90
2022-09-02T04:11:10.808Z,18.20
2022-09-02T04:13:37.562Z,18.20
2022-09-02T04:16:27.430Z,18.30
2022-09-02T04:18:56.885Z,18.30
2022-09-02T04:21:24.689Z,18.30
2022-09-02T04:23:52.599Z,18.30
2022-09-02T04:26:20.455Z,18.20
2022-09-02T04:28:49.370Z,17.90
2022-09-02T04:31:19.184Z,18.00
2022-09-02T04:33:46.453Z,17.30
2022-09-02T04:36:15.468Z,17.50
2022-09-02T04:38:43.059Z,17.50
2022-09-02T04:41:16.564Z,17.50
2022-09-02T04:43:43.362Z,17.40
2022-09-02T04:46:13.280Z,17.50
2022-09-02T04:48:40.674Z,17.60
2022-09-02T04:51:10.881Z,17.70
2022-09-02T04:53:38.669Z,17.90
2022-09-02T04:56:07.660Z,17.70
2022-09-02T04:58:35.034Z,17.60
2022-09-02T05:01:09.904Z,17.90
2022-09-02T05:03:37.356Z,18.00
2022-09-02T05:06:07.897Z,18.20
2022-09-02T05:08:38.296Z,17.70
2022-09-02T05:11:09.341Z,17.70
2022-09-02T05:13:36.057Z,17.60
2022-09-02T05:16:03.055Z,17.40
2022-09-02T05:18:31.184Z,17.60
2022-09-02T05:20:57.920Z,17.70
2022-09-02T05:23:24.933Z,17.80
2022-09-02T05:25:51.668Z,17.80
2022-09-02T05:28:18.384Z,18.50
2022-09-02T05:30:45.132Z,18.70
2022-09-02T05:33:13.480Z,18.60
2022-09-02T05:35:44.221Z,18.60
2022-09-02T05:38:12.877Z,18.10
2022-09-02T05:40:39.621Z,19.20
2022-09-02T05:43:07.146Z,19.60
2022-09-02T05:45:34.504Z,19.20
2022-09-02T05:48:21.179Z,19.10
2022-09-02T05:50:50.267Z,19.30
2022-09-02T05:53:26.781Z,19.10
2022-09-02T05:55:53.753Z,17.50
2022-09-02T05:58:21.250Z,17.60
2022-09-02T06:00:47.954Z,17.50
2022-09-02T06:03:14.908Z,17.60
2022-09-02T06:05:42.543Z,17.50
2022-09-02T06:08:09.433Z,17.80
2022-09-02T06:10:41.673Z,17.40
2022-09-02T06:13:08.406Z,17.00
2022-09-02T06:15:35.184Z,17.40
2022-09-02T06:18:02.003Z,18.10
2022-09-02T06:20:32.455Z,18.40
2022-09-02T06:22:59.197Z,18.20
2022-09-02T06:25:25.910Z,18.40
2022-09-02T06:27:52.572Z,18.40
2022-09-02T06:30:19.462Z,18.30
2022-09-02T06:32:50.375Z,17.80
2022-09-02T06:35:18.603Z,17.90
2022-09-02T06:37:45.626Z,18.40
2022-09-02T06:40:14.041Z,18.50
2022-09-02T06:42:41.619Z,18.80
2022-09-02T06:45:09.108Z,19.10
2022-09-02T06:47:36.042Z,18.90
2022-09-02T06:50:03.236Z,19.50
2022-09-02T06:52:30.071Z,19.60
2022-09-02T06:54:56.797Z,19.70
2022-09-02T06:57:31.334Z,19.90
2022-09-02T07:00:02.394Z,20.20
2022-09-02T07:02:29.443Z,20.20
2022-09-02T07:05:14.984Z,20.50
2022-09-02T07:07:44.335Z,20.50
2022-09-02T07:10:13.920Z,21.00
2022-09-02T07:12:44.499Z,20.60
2022-09-02T07:15:11.753Z,21.20
2022-09-02T07:17:38.909Z,21.10
2022-09-02T07:20:07.389Z,21.60
2022-09-02T07:22:34.120Z,21.70
2022-09-02T07:25:00.877Z,21.30
2022-09-02T07:27:27.713Z,21.60
2022-09-02T07:29:54.651Z,21.60
2022-09-02T07:32:21.880Z,21.60
2022-09-02T07:34:48.965Z,21.50
2022-09-02T07:37:15.721Z,21.20
2022-09-02T07:39:44.106Z,20.80
2022-09-02T07:42:11.666Z,20.80
2022-09-02T07:44:38.711Z,20.70
2022-09-02T07:47:06.894Z,20.30
2022-09-02T07:50:15.932Z,20.60
2022-09-02T07:52:20.272Z,20.80
2022-09-02T07:54:46.960Z,21.10
2022-09-02T07:57:13.748Z,21.10
2022-09-02T07:59:40.592Z,21.00
2022-09-02T08:02:09.559Z,21.10
2022-09-02T08:04:36.503Z,21.20
2022-09-02T08:07:03.449Z,21.10
2022-09-02T08:09:30.955Z,21.20
2022-09-02T08:11:57.743Z,21.10
2022-09-02T08:14:27.664Z,21.20
2022-09-02T08:16:57.293Z,21.50
2022-09-02T08:19:25.032Z,21.00
2022-09-02T08:21:51.945Z,21.00
2022-09-02T08:24:18.751Z,20.90
2022-09-02T08:26:45.920Z,21.10
2022-09-02T08:29:12.947Z,21.40
2022-09-02T08:31:39.798Z,21.70
2022-09-02T08:34:06.553Z,21.30
2022-09-02T08:36:33.531Z,21.30
2022-09-02T08:39:02.953Z,21.20
2022-09-02T08:41:47.033Z,21.50
2022-09-02T08:44:22.149Z,21.80
2022-09-02T08:46:53.876Z,21.50
2022-09-02T08:49:33.707Z,21.50
2022-09-02T08:52:04.223Z,21.70
2022-09-02T08:54:43.406Z,21.60
2022-09-02T08:57:10.901Z,21.50
2022-09-02T09:02:34.072Z,21.70
2022-09-02T09:05:10.822Z,21.90
2022-09-02T09:07:47.942Z,22.00
2022-09-02T09:10:31.054Z,22.10
2022-09-02T09:13:50.431Z,21.90
2022-09-02T09:16:22.557Z,22.10
2022-09-02T09:19:09.055Z,22.20
2022-09-02T09:21:36.072Z,22.10
2022-09-02T09:24:10.195Z,22.20
2022-09-02T09:26:41.035Z,22.30
2022-09-02T09:29:07.947Z,22.10
2022-09-02T09:31:36.289Z,22.20
2022-09-02T09:34:12.467Z,22.20
2022-09-02T09:36:44.902Z,22.20
2022-09-02T09:39:25.535Z,22.10
2022-09-02T09:42:02.925Z,22.10
2022-09-02T09:44:45.287Z,22.20
2022-09-02T09:47:19.670Z,22.30
2022-09-02T09:49:48.667Z,22.60
2022-09-02T09:52:29.726Z,22.30
2022-09-02T09:55:20.908Z,22.00
2022-09-02T09:57:52.658Z,22.40
2022-09-02T10:00:39.025Z,22.60
2022-09-02T10:03:08.500Z,22.80
2022-09-02T10:05:38.434Z,22.90
2022-09-02T10:08:19.442Z,22.80
2022-09-02T10:11:19.039Z,23.10
2022-09-02T10:13:45.845Z,22.90
2022-09-02T10:16:31.529Z,23.00
2022-09-02T10:19:01.365Z,22.90
2022-09-02T10:21:49.669Z,23.00
2022-09-02T10:24:37.641Z,23.30
2022-09-02T10:27:09.069Z,23.50
2022-09-02T10:29:43.459Z,23.40
2022-09-02T10:32:34.950Z,23.40
2022-09-02T10:35:21.264Z,23.40
2022-09-02T10:37:53.746Z,23.50
2022-09-02T10:40:27.389Z,23.50
2022-09-02T10:43:09.766Z,23.60
2022-09-02T10:45:46.671Z,23.80
2022-09-02T10:48:28.199Z,23.90
2022-09-02T10:51:22.520Z,23.80
2022-09-02T10:54:23.564Z,23.90
2022-09-02T10:57:20.067Z,23.90
2022-09-02T11:00:14.972Z,24.20
2022-09-02T11:03:15.163Z,24.10
2022-09-02T11:06:10.715Z,24.10
2022-09-02T11:08:48.449Z,24.00
2022-09-02T11:11:21.562Z,23.80
2022-09-02T11:14:07.523Z,24.10
2022-09-02T11:16:42.902Z,23.90
2022-09-02T11:19:32.934Z,24.00
2022-09-02T11:22:27.270Z,24.30
2022-09-02T11:25:03.152Z,24.10
2022-09-02T11:27:49.003Z,24.30
2022-09-02T11:30:22.446Z,24.40
2022-09-02T11:33:13.010Z,24.70
2022-09-02T11:35:42.644Z,24.40
2022-09-02T11:38:15.577Z,24.70
2022-09-02T11:41:32.638Z,24.60
2022-09-02T11:43:46.636Z,24.90
2022-09-02T11:46:39.799Z,24.80
2022-09-02T11:49:22.474Z,24.90
2022-09-02T11:51:55.511Z,24.70
2022-09-02T11:54:25.695Z,24.60
2022-09-02T11:56:56.932Z,24.90
2022-09-02T11:59:52.699Z,24.60
2022-09-02T12:02:50.216Z,24.70
2022-09-02T12:05:29.916Z,24.70
2022-09-02T12:07:58.531Z,24.50
2022-09-02T12:10:42.363Z,24.50
2022-09-02T12:13:12.286Z,24.90
2022-09-02T12:15:41.963Z,25.20
2022-09-02T12:18:19.640Z,25.20
2022-09-02T12:20:51.145Z,24.90
2022-09-02T12:23:49.741Z,24.80
2022-09-02T12:26:17.999Z,25.10
2022-09-02T12:28:46.377Z,24.70
2022-09-02T12:31:22.753Z,25.10
2022-09-02T12:33:51.593Z,25.30
2022-09-02T12:36:36.659Z,24.80
2022-09-02T12:39:28.635Z,25.40
2022-09-02T12:42:07.772Z,25.50
2022-09-02T12:44:52.743Z,25.20
2022-09-02T12:47:57.059Z,25.20
2022-09-02T12:50:36.041Z,25.50
2022-09-02T12:53:24.521Z,25.20
2022-09-02T12:56:01.437Z,25.40
2022-09-02T12:58:35.720Z,25.00
2022-09-02T13:01:18.554Z,25.50
2022-09-02T13:04:03.054Z,25.10
2022-09-02T13:07:15.255Z,25.30
2022-09-02T13:10:28.519Z,25.10
2022-09-02T13:13:10.651Z,25.40
2022-09-02T13:16:18.509Z,25.50
2022-09-02T13:19:33.247Z,26.00
2022-09-02T13:22:21.785Z,25.20
2022-09-02T13:25:16.037Z,25.50
2022-09-02T13:28:13.660Z,25.40
2022-09-02T13:30:49.316Z,25.30
2022-09-02T13:33:16.116Z,25.30
2022-09-02T13:35:43.145Z,25.20
2022-09-02T13:38:12.720Z,25.20
2022-09-02T13:40:41.069Z,25.40
2022-09-02T13:43:13.913Z,25.60
2022-09-02T13:45:41.578Z,25.00
2022-09-02T13:48:21.980Z,25.40
2022-09-02T13:50:51.368Z,25.10
2022-09-02T13:54:05.559Z,25.30
2022-09-02T14:27:03.040Z,25.70
2022-09-02T14:29:33.805Z,25.60
2022-09-02T14:32:14.905Z,25.50
2022-09-02T14:34:46.066Z,25.70
2022-09-02T14:37:27.891Z,25.70
2022-09-02T14:40:16.269Z,25.80
2022-09-02T14:43:07.863Z,25.90
2022-09-02T14:45:38.225Z,25.90
2022-09-02T14:48:36.140Z,25.50
2022-09-02T14:51:08.277Z,26.00
2022-09-02T14:53:37.663Z,25.90
2022-09-02T14:56:05.849Z,25.90
2022-09-02T14:58:33.613Z,25.80
2022-09-02T15:01:01.755Z,25.80
2022-09-02T15:03:31.181Z,25.80
2022-09-02T15:05:58.723Z,25.60
2022-09-02T15:08:25.571Z,25.70
2022-09-02T15:10:54.706Z,25.70
2022-09-02T15:13:33.963Z,25.90
2022-09-02T15:16:01.907Z,25.70
2022-09-02T15:18:28.799Z,25.70
2022-09-02T15:20:55.523Z,25.40
2022-09-02T15:23:24.139Z,25.70
2022-09-02T15:25:53.224Z,25.70
2022-09-02T15:28:19.968Z,25.70
2022-09-02T15:30:46.723Z,25.80
2022-09-02T15:33:17.357Z,25.80
2022-09-02T15:35:47.438Z,25.80
2022-09-02T15:38:14.314Z,25.70
2022-09-02T15:40:41.059Z,25.40
2022-09-02T15:43:07.737Z,25.50
2022-09-02T15:45:35.195Z,25.40
2022-09-02T15:48:02.114Z,25.70
2022-09-02T15:50:33.912Z,25.70
2022-09-02T15:53:01.316Z,25.80
2022-09-02T15:55:33.094Z,25.60
2022-09-02T15:58:00.436Z,25.60
2022-09-02T16:00:27.647Z,25.50
2022-09-02T16:02:56.881Z,25.50
2022-09-02T16:05:24.190Z,25.40
2022-09-02T16:07:55.023Z,25.40
2022-09-02T16:10:22.893Z,25.20
2022-09-02T16:12:49.677Z,25.10
2022-09-02T16:15:16.385Z,25.10
2022-09-02T16:17:44.351Z,25.20
2022-09-02T16:20:11.473Z,25.30
2022-09-02T16:22:38.442Z,25.20
2022-09-02T16:25:05.774Z,25.30
2022-09-02T16:28:04.268Z,25.40
2022-09-02T16:30:31.262Z,25.60
2022-09-02T16:32:58.389Z,25.60
2022-09-02T16:35:25.311Z,25.40
2022-09-02T16:37:53.834Z,25.40
2022-09-02T16:40:21.792Z,25.40
2022-09-02T16:42:49.417Z,25.30
2022-09-02T16:45:16.277Z,25.30
2022-09-02T16:47:43.019Z,25.20
2022-09-02T16:50:12.009Z,25.30
2022-09-02T16:52:39.351Z,25.40
2022-09-02T16:55:07.027Z,25.40
2022-09-02T16:57:33.776Z,25.20
2022-09-02T17:00:00.507Z,25.00
2022-09-02T17:02:31.933Z,25.10
2022-09-02T17:04:58.738Z,25.10
2022-09-02T17:07:25.431Z,25.10
2022-09-02T17:09:52.293Z,25.00
2022-09-02T17:12:19.070Z,24.90
2022-09-02T17:14:46.184Z,25.00
2022-09-02T17:17:16.241Z,24.90
2022-09-02T17:19:43.082Z,24.90
2022-09-02T17:22:09.777Z,25.00
2022-09-02T17:24:38.096Z,24.90
2022-09-02T17:27:05.164Z,24.70
2022-09-02T17:30:01.784Z,24.70
2022-09-02T17:32:19.615Z,24.80
2022-09-02T17:34:49.625Z,24.80
2022-09-02T17:37:17.607Z,24.70
2022-09-02T17:39:46.293Z,24.90
2022-09-02T17:42:13.535Z,24.70
2022-09-02T17:44:40.580Z,24.70
2022-09-02T17:47:10.128Z,24.60
2022-09-02T17:49:41.293Z,24.60
2022-09-02T17:52:09.208Z,24.60
2022-09-02T17:54:37.620Z,24.50
2022-09-02T17:57:19.975Z,24.40
2022-09-02T18:00:08.059Z,24.50
2022-09-02T18:02:55.755Z,24.40
2022-09-02T18:05:56.462Z,24.30
2022-09-02T18:08:45.564Z,24.30
2022-09-02T18:11:12.921Z,24.30
2022-09-02T18:13:47.605Z,24.00
2022-09-02T18:16:29.567Z,24.10
2022-09-02T18:19:09.579Z,24.00
2022-09-02T18:22:01.015Z,23.90
2022-09-02T18:25:08.628Z,23.70
2022-09-02T18:27:55.655Z,23.80
2022-09-02T18:30:33.558Z,23.90
2022-09-02T18:33:40.422Z,23.90
2022-09-02T18:36:39.762Z,23.70
2022-09-02T18:39:31.421Z,23.70
2022-09-02T18:42:17.676Z,23.70
2022-09-02T18:45:11.911Z,23.50
2022-09-02T18:47:45.786Z,23.50
2022-09-02T18:50:45.059Z,23.70
2022-09-02T18:53:13.536Z,23.50
2022-09-02T18:55:42.566Z,23.30
2022-09-02T18:58:36.337Z,23.30
2022-09-02T19:01:30.602Z,23.20
2022-09-02T19:04:01.217Z,23.30
2022-09-02T19:06:37.051Z,23.30
2022-09-02T19:09:06.974Z,23.20
2022-09-02T19:11:35.839Z,23.10
2022-09-02T19:14:08.658Z,22.70
2022-09-02T19:16:37.756Z,22.90
2022-09-02T19:19:06.529Z,23.00
2022-09-02T19:21:40.686Z,22.80
2022-09-02T19:24:12.155Z,22.90
2022-09-02T19:26:41.441Z,22.90
2022-09-02T19:29:12.246Z,22.90
2022-09-02T19:31:40.918Z,22.80
2022-09-02T19:34:09.453Z,22.60
2022-09-02T19:36:39.452Z,22.60
2022-09-02T19:39:08.179Z,22.70
2022-09-02T19:41:34.987Z,22.50
2022-09-02T19:44:02.122Z,22.40
2022-09-02T19:47:07.023Z,22.40
2022-09-02T19:49:16.697Z,22.30
2022-09-02T19:51:44.681Z,22.10
2022-09-02T19:54:14.750Z,22.10
2022-09-02T19:56:42.124Z,22.30
2022-09-02T19:59:10.929Z,22.30
2022-09-02T20:01:38.157Z,22.30
2022-09-02T20:04:06.229Z,22.30
2022-09-02T20:06:33.180Z,22.20
2022-09-02T20:08:59.986Z,21.90
2022-09-02T20:11:27.849Z,22.00
2022-09-02T20:13:56.695Z,21.90
2022-09-02T20:16:26.295Z,21.90
2022-09-02T20:18:53.980Z,22.20
2022-09-02T20:21:28.876Z,22.20
2022-09-02T20:24:03.294Z,22.30
2022-09-02T20:27:06.809Z,22.10
2022-09-02T20:30:03.204Z,22.10
2022-09-02T20:32:50.198Z,21.80
2022-09-02T20:36:07.900Z,21.50
2022-09-02T20:38:39.971Z,21.60
2022-09-02T20:41:39.765Z,21.70
2022-09-02T20:44:15.461Z,21.70
2022-09-02T20:46:49.415Z,21.70
2022-09-02T20:49:41.174Z,21.40
2022-09-02T20:52:25.971Z,21.60
2022-09-02T20:55:21.517Z,21.50
2022-09-02T20:58:31.528Z,21.90
2022-09-02T21:01:19.081Z,21.40
2022-09-02T21:03:51.034Z,21.20
2022-09-02T21:06:22.185Z,21.30
2022-09-02T21:09:12.705Z,21.50
2022-09-02T21:12:14.864Z,21.50
2022-09-02T21:14:52.830Z,21.50
2022-09-02T21:17:30.681Z,21.10
2022-09-02T21:20:23.705Z,21.20
2022-09-02T21:22:55.462Z,21.20
2022-09-02T21:25:49.979Z,21.60
2022-09-02T21:28:23.697Z,21.40
2022-09-02T21:30:59.143Z,21.70
2022-09-02T21:33:31.596Z,21.50
2022-09-02T21:36:00.423Z,21.40
2022-09-02T21:38:41.629Z,21.20
2022-09-02T21:41:28.951Z,21.00
2022-09-02T21:43:56.961Z,21.40
2022-09-02T21:46:32.651Z,21.40
2022-09-02T21:49:28.090Z,21.40
2022-09-02T21:52:06.542Z,21.60
2022-09-02T21:55:07.909Z,21.50
2022-09-02T21:58:07.042Z,21.10
2022-09-02T22:00:34.778Z,21.40
2022-09-02T22:03:21.944Z,21.20
2022-09-02T22:06:19.493Z,21.20
2022-09-02T22:08:54.439Z,21.30
2022-09-02T22:11:24.093Z,21.40
2022-09-02T22:13:50.983Z,21.30
2022-09-02T22:16:49.048Z,21.50
2022-09-02T22:19:17.130Z,21.40
2022-09-02T22:21:49.356Z,21.30
2022-09-02T22:24:18.100Z,21.20
2022-09-02T22:26:51.508Z,21.30
2022-09-02T22:29:55.599Z,20.90
2022-09-02T22:32:25.411Z,21.20
2022-09-02T22:35:10.462Z,21.30
2022-09-02T22:37:55.561Z,21.30
2022-09-02T22:40:26.798Z,20.60
2022-09-02T22:43:00.651Z,20.60
2022-09-02T22:45:57.513Z,20.90
2022-09-02T22:49:07.399Z,20.80
2022-09-02T22:52:04.103Z,21.00
2022-09-02T22:54:32.213Z,20.60
2022-09-02T22:57:22.597Z,20.80
2022-09-02T23:00:09.385Z,20.70
2022-09-02T23:02:41.532Z,20.80
2022-09-02T23:05:34.021Z,20.30
2022-09-02T23:08:01.536Z,20.50
2022-09-02T23:10:28.317Z,20.70
2022-09-02T23:13:03.657Z,20.70
2022-09-02T23:16:11.876Z,20.60
2022-09-02T23:18:53.660Z,20.70
2022-09-02T23:21:30.788Z,20.30
2022-09-02T23:24:17.518Z,19.90
2022-09-02T23:27:12.588Z,20.40
2022-09-02T23:29:42.928Z,20.50
2022-09-02T23:32:09.548Z,20.50
2022-09-02T23:35:01.007Z,20.20
2022-09-02T23:37:34.450Z,20.30
2022-09-02T23:40:30.833Z,20.30
2022-09-02T23:42:59.362Z,19.90
2022-09-02T23:45:29.510Z,20.50
2022-09-02T23:48:23.794Z,20.50
2022-09-02T23:51:13.835Z,20.40
2022-09-02T23:54:21.567Z,20.10
2022-09-02T23:57:27.293Z,20.10
